AFA88 RCFN-RCKH
Flight info
| Callsign | AFA88 |
|---|---|
| Flight time | 0h 48m |
| Altitude | 8000 |
| Route | GAMMA V14 LATIS B591 HCN |
| Aircraft | DA42/L-SBDGRY/S |
Departure
| Time | 2026-05-01 12:20 |
|---|---|
| Airport | Taitung Airport (RCFN) |
Arrival
| Time | 2026-05-01 13:08 |
|---|---|
| Airport | Kaohsiung International Airport (RCKH) |
| Time | Latitude | Longitude | Altitude | Speed | Heading |
|---|---|---|---|---|---|
| 2026-05-01 11:55 | 22.75947 | 121.10316 | 141 ft | 0 kts | 41° |
| 2026-05-01 12:12 | 22.75955 | 121.10330 | 141 ft | 6 kts | 90° |
| 2026-05-01 12:13 | 22.75916 | 121.10369 | 138 ft | 12 kts | 182° |
| 2026-05-01 12:13 | 22.75853 | 121.10322 | 138 ft | 10 kts | 219° |
| 2026-05-01 12:13 | 22.75777 | 121.10255 | 139 ft | 16 kts | 218° |
| 2026-05-01 12:13 | 22.75697 | 121.10187 | 139 ft | 13 kts | 219° |
| 2026-05-01 12:14 | 22.75615 | 121.10116 | 140 ft | 25 kts | 220° |
| 2026-05-01 12:14 | 22.75495 | 121.10012 | 140 ft | 28 kts | 220° |
| 2026-05-01 12:14 | 22.75397 | 121.09927 | 141 ft | 16 kts | 218° |
| 2026-05-01 12:14 | 22.75315 | 121.09857 | 142 ft | 14 kts | 217° |
| 2026-05-01 12:15 | 22.75240 | 121.09792 | 142 ft | 13 kts | 218° |
| 2026-05-01 12:15 | 22.75172 | 121.09733 | 143 ft | 12 kts | 217° |
| 2026-05-01 12:15 | 22.75106 | 121.09676 | 144 ft | 13 kts | 219° |
| 2026-05-01 12:15 | 22.75034 | 121.09614 | 145 ft | 13 kts | 220° |
| 2026-05-01 12:16 | 22.74966 | 121.09554 | 145 ft | 12 kts | 220° |
| 2026-05-01 12:16 | 22.74900 | 121.09498 | 146 ft | 12 kts | 220° |
| 2026-05-01 12:16 | 22.74836 | 121.09442 | 146 ft | 12 kts | 219° |
| 2026-05-01 12:16 | 22.74771 | 121.09386 | 147 ft | 12 kts | 219° |
| 2026-05-01 12:17 | 22.74706 | 121.09367 | 147 ft | 10 kts | 152° |
| 2026-05-01 12:17 | 22.74665 | 121.09420 | 147 ft | 10 kts | 126° |
| 2026-05-01 12:17 | 22.74674 | 121.09460 | 147 ft | 0 kts | 38° |
| 2026-05-01 12:19 | 22.74800 | 121.09570 | 148 ft | 55 kts | 39° |
| 2026-05-01 12:19 | 22.75207 | 121.09922 | 253 ft | 82 kts | 40° |
| 2026-05-01 12:20 | 22.75648 | 121.10333 | 529 ft | 83 kts | 43° |
| 2026-05-01 12:20 | 22.76091 | 121.10763 | 725 ft | 90 kts | 43° |
| 2026-05-01 12:20 | 22.76570 | 121.11206 | 949 ft | 91 kts | 41° |
| 2026-05-01 12:20 | 22.76914 | 121.11768 | 1181 ft | 90 kts | 82° |
| 2026-05-01 12:21 | 22.76780 | 121.12426 | 1448 ft | 94 kts | 124° |
| 2026-05-01 12:21 | 22.76249 | 121.12813 | 1739 ft | 95 kts | 167° |
| 2026-05-01 12:21 | 22.75596 | 121.12729 | 2036 ft | 96 kts | 194° |
| 2026-05-01 12:21 | 22.74949 | 121.12522 | 2322 ft | 98 kts | 195° |
| 2026-05-01 12:22 | 22.74297 | 121.12311 | 2633 ft | 98 kts | 196° |
| 2026-05-01 12:22 | 22.73599 | 121.12099 | 2802 ft | 113 kts | 196° |
| 2026-05-01 12:22 | 22.72823 | 121.11874 | 3086 ft | 116 kts | 196° |
| 2026-05-01 12:22 | 22.72075 | 121.11668 | 3211 ft | 106 kts | 190° |
| 2026-05-01 12:23 | 22.71364 | 121.11489 | 3261 ft | 103 kts | 189° |
| 2026-05-01 12:23 | 22.70653 | 121.11362 | 3372 ft | 102 kts | 189° |
| 2026-05-01 12:23 | 22.69957 | 121.11207 | 3483 ft | 106 kts | 195° |
| 2026-05-01 12:23 | 22.69211 | 121.11026 | 3718 ft | 109 kts | 195° |
| 2026-05-01 12:24 | 22.68454 | 121.11109 | 3909 ft | 117 kts | 152° |
| 2026-05-01 12:24 | 22.67739 | 121.11549 | 4142 ft | 118 kts | 151° |
| 2026-05-01 12:24 | 22.67035 | 121.11979 | 4421 ft | 115 kts | 148° |
| 2026-05-01 12:24 | 22.66333 | 121.12393 | 4700 ft | 115 kts | 152° |
| 2026-05-01 12:25 | 22.65618 | 121.12786 | 4970 ft | 116 kts | 153° |
| 2026-05-01 12:25 | 22.64180 | 121.13563 | 5506 ft | 116 kts | 154° |
| 2026-05-01 12:25 | 22.63461 | 121.13952 | 5781 ft | 116 kts | 155° |
| 2026-05-01 12:26 | 22.62749 | 121.14354 | 6059 ft | 115 kts | 155° |
| 2026-05-01 12:26 | 22.61338 | 121.15183 | 6570 ft | 116 kts | 155° |
| 2026-05-01 12:26 | 22.60652 | 121.15625 | 6834 ft | 112 kts | 155° |
| 2026-05-01 12:27 | 22.59985 | 121.16047 | 7052 ft | 113 kts | 155° |
| 2026-05-01 12:27 | 22.58603 | 121.16896 | 7553 ft | 115 kts | 156° |
| 2026-05-01 12:28 | 22.57203 | 121.17771 | 7982 ft | 124 kts | 157° |
| 2026-05-01 12:28 | 22.56390 | 121.18260 | 7993 ft | 142 kts | 157° |
| 2026-05-01 12:28 | 22.54518 | 121.19348 | 7993 ft | 161 kts | 157° |
| 2026-05-01 12:29 | 22.53514 | 121.19926 | 7990 ft | 165 kts | 157° |
| 2026-05-01 12:29 | 22.52487 | 121.20511 | 7991 ft | 168 kts | 156° |
| 2026-05-01 12:29 | 22.50414 | 121.21684 | 7987 ft | 169 kts | 156° |
| 2026-05-01 12:30 | 22.48349 | 121.22862 | 7981 ft | 165 kts | 156° |
| 2026-05-01 12:30 | 22.47315 | 121.23295 | 7979 ft | 159 kts | 176° |
| 2026-05-01 12:30 | 22.46216 | 121.23422 | 7981 ft | 159 kts | 178° |
| 2026-05-01 12:31 | 22.45116 | 121.23547 | 7980 ft | 159 kts | 177° |
| 2026-05-01 12:31 | 22.44014 | 121.23673 | 7980 ft | 159 kts | 177° |
| 2026-05-01 12:31 | 22.42917 | 121.23798 | 7979 ft | 159 kts | 177° |
| 2026-05-01 12:31 | 22.41815 | 121.23923 | 7980 ft | 159 kts | 177° |
| 2026-05-01 12:32 | 22.40713 | 121.24048 | 7980 ft | 159 kts | 177° |
| 2026-05-01 12:32 | 22.38538 | 121.23862 | 7979 ft | 157 kts | 198° |
| 2026-05-01 12:32 | 22.37551 | 121.23379 | 7982 ft | 156 kts | 215° |
| 2026-05-01 12:33 | 22.36675 | 121.22695 | 7984 ft | 155 kts | 217° |
| 2026-05-01 12:33 | 22.35826 | 121.21981 | 7983 ft | 155 kts | 218° |
| 2026-05-01 12:33 | 22.34989 | 121.21256 | 7984 ft | 154 kts | 219° |
| 2026-05-01 12:33 | 22.34152 | 121.20524 | 7984 ft | 155 kts | 219° |
| 2026-05-01 12:34 | 22.33316 | 121.19790 | 7982 ft | 155 kts | 219° |
| 2026-05-01 12:34 | 22.32479 | 121.19056 | 7981 ft | 155 kts | 219° |
| 2026-05-01 12:34 | 22.31649 | 121.18327 | 7981 ft | 153 kts | 218° |
| 2026-05-01 12:34 | 22.30825 | 121.17607 | 7982 ft | 152 kts | 218° |
| 2026-05-01 12:35 | 22.30003 | 121.16887 | 7981 ft | 152 kts | 218° |
| 2026-05-01 12:35 | 22.29182 | 121.16167 | 7979 ft | 151 kts | 218° |
| 2026-05-01 12:35 | 22.28366 | 121.15453 | 7979 ft | 151 kts | 218° |
| 2026-05-01 12:35 | 22.27553 | 121.14740 | 7980 ft | 151 kts | 218° |
| 2026-05-01 12:36 | 22.26738 | 121.14027 | 7978 ft | 151 kts | 218° |
| 2026-05-01 12:36 | 22.25922 | 121.13311 | 7979 ft | 151 kts | 218° |
| 2026-05-01 12:36 | 22.25103 | 121.12595 | 7980 ft | 152 kts | 218° |
| 2026-05-01 12:36 | 22.24282 | 121.11876 | 7978 ft | 152 kts | 218° |
| 2026-05-01 12:37 | 22.23459 | 121.11155 | 7982 ft | 152 kts | 218° |
| 2026-05-01 12:37 | 22.22637 | 121.10436 | 7980 ft | 152 kts | 218° |
| 2026-05-01 12:37 | 22.21817 | 121.09714 | 7979 ft | 152 kts | 218° |
| 2026-05-01 12:37 | 22.20996 | 121.08998 | 7979 ft | 151 kts | 218° |
| 2026-05-01 12:38 | 22.20178 | 121.08284 | 7979 ft | 152 kts | 218° |
| 2026-05-01 12:38 | 22.19357 | 121.07566 | 7975 ft | 152 kts | 218° |
| 2026-05-01 12:38 | 22.18534 | 121.06847 | 7975 ft | 153 kts | 218° |
| 2026-05-01 12:38 | 22.17690 | 121.06116 | 7969 ft | 159 kts | 220° |
| 2026-05-01 12:39 | 22.16834 | 121.05355 | 7976 ft | 159 kts | 219° |
| 2026-05-01 12:39 | 22.15976 | 121.04606 | 7976 ft | 159 kts | 218° |
| 2026-05-01 12:39 | 22.15118 | 121.03858 | 7976 ft | 159 kts | 219° |
| 2026-05-01 12:39 | 22.14262 | 121.03110 | 7975 ft | 158 kts | 219° |
| 2026-05-01 12:40 | 22.13417 | 121.02371 | 7975 ft | 158 kts | 218° |
| 2026-05-01 12:40 | 22.12564 | 121.01626 | 7976 ft | 158 kts | 219° |
| 2026-05-01 12:40 | 22.11712 | 121.00881 | 7976 ft | 158 kts | 219° |
| 2026-05-01 12:40 | 22.10861 | 121.00137 | 7975 ft | 157 kts | 218° |
| 2026-05-01 12:41 | 22.10000 | 120.99385 | 7976 ft | 157 kts | 218° |
| 2026-05-01 12:41 | 22.09164 | 120.98656 | 7977 ft | 157 kts | 219° |
| 2026-05-01 12:41 | 22.08317 | 120.97916 | 7977 ft | 157 kts | 219° |
| 2026-05-01 12:41 | 22.07470 | 120.97175 | 7976 ft | 157 kts | 218° |
| 2026-05-01 12:42 | 22.06620 | 120.96433 | 7977 ft | 157 kts | 218° |
| 2026-05-01 12:42 | 22.05771 | 120.95692 | 7975 ft | 157 kts | 219° |
| 2026-05-01 12:42 | 22.04924 | 120.94952 | 7976 ft | 157 kts | 218° |
| 2026-05-01 12:42 | 22.04074 | 120.94210 | 7976 ft | 157 kts | 218° |
| 2026-05-01 12:43 | 22.03227 | 120.93471 | 7973 ft | 157 kts | 218° |
| 2026-05-01 12:43 | 22.02378 | 120.92730 | 7974 ft | 157 kts | 218° |
| 2026-05-01 12:43 | 22.01529 | 120.91989 | 7975 ft | 157 kts | 218° |
| 2026-05-01 12:43 | 22.00680 | 120.91248 | 7974 ft | 157 kts | 218° |
| 2026-05-01 12:44 | 21.99830 | 120.90507 | 7974 ft | 157 kts | 218° |
| 2026-05-01 12:44 | 21.98983 | 120.89768 | 7973 ft | 157 kts | 219° |
| 2026-05-01 12:44 | 21.97290 | 120.88280 | 7974 ft | 157 kts | 218° |
| 2026-05-01 12:45 | 21.95601 | 120.86781 | 7974 ft | 157 kts | 219° |
| 2026-05-01 12:45 | 21.94756 | 120.86033 | 7974 ft | 157 kts | 219° |
| 2026-05-01 12:45 | 21.93907 | 120.85287 | 7974 ft | 157 kts | 219° |
| 2026-05-01 12:46 | 21.93062 | 120.84540 | 7974 ft | 157 kts | 219° |
| 2026-05-01 12:46 | 21.92456 | 120.83576 | 7972 ft | 161 kts | 253° |
| 2026-05-01 12:46 | 21.92600 | 120.82379 | 7971 ft | 168 kts | 293° |
| 2026-05-01 12:46 | 21.93461 | 120.81520 | 7972 ft | 176 kts | 333° |
| 2026-05-01 12:47 | 21.94680 | 120.81349 | 7976 ft | 180 kts | 0° |
| 2026-05-01 12:47 | 21.95932 | 120.81413 | 7972 ft | 180 kts | 354° |
| 2026-05-01 12:47 | 21.97051 | 120.80914 | 7998 ft | 172 kts | 319° |
| 2026-05-01 12:47 | 21.97989 | 120.80142 | 8047 ft | 170 kts | 318° |
| 2026-05-01 12:48 | 21.98933 | 120.79367 | 8051 ft | 171 kts | 319° |
| 2026-05-01 12:48 | 21.99886 | 120.78592 | 8052 ft | 172 kts | 319° |
| 2026-05-01 12:48 | 22.00845 | 120.77813 | 8053 ft | 173 kts | 319° |
| 2026-05-01 12:48 | 22.01484 | 120.77294 | 8052 ft | 174 kts | 319° |
| 2026-05-01 12:49 | 22.02453 | 120.76507 | 8053 ft | 175 kts | 319° |
| 2026-05-01 12:49 | 22.03427 | 120.75717 | 8051 ft | 175 kts | 319° |
| 2026-05-01 12:49 | 22.04397 | 120.74928 | 8052 ft | 175 kts | 319° |
| 2026-05-01 12:49 | 22.05681 | 120.73886 | 8050 ft | 174 kts | 319° |
| 2026-05-01 12:50 | 22.06629 | 120.73124 | 8042 ft | 166 kts | 321° |
| 2026-05-01 12:50 | 22.07259 | 120.72642 | 8068 ft | 162 kts | 321° |
| 2026-05-01 12:50 | 22.08225 | 120.71933 | 8073 ft | 170 kts | 322° |
| 2026-05-01 12:50 | 22.09216 | 120.71216 | 8111 ft | 172 kts | 321° |
| 2026-05-01 12:51 | 22.10197 | 120.70464 | 8123 ft | 175 kts | 319° |
| 2026-05-01 12:51 | 22.11125 | 120.69727 | 7502 ft | 162 kts | 319° |
| 2026-05-01 12:51 | 22.12958 | 120.68241 | 6027 ft | 170 kts | 318° |
| 2026-05-01 12:52 | 22.13899 | 120.67449 | 6038 ft | 174 kts | 319° |
| 2026-05-01 12:52 | 22.15450 | 120.66196 | 6020 ft | 104 kts | 320° |
| 2026-05-01 12:52 | 22.16050 | 120.65724 | 5990 ft | 118 kts | 320° |
| 2026-05-01 12:53 | 22.17547 | 120.64516 | 6030 ft | 132 kts | 320° |
| 2026-05-01 12:53 | 22.18226 | 120.63991 | 6031 ft | 106 kts | 320° |
| 2026-05-01 12:53 | 22.18784 | 120.63578 | 6022 ft | 89 kts | 320° |
| 2026-05-01 12:54 | 22.19319 | 120.63170 | 5903 ft | 112 kts | 319° |
| 2026-05-01 12:54 | 22.20459 | 120.62268 | 6493 ft | 105 kts | 316° |
| 2026-05-01 12:54 | 22.21119 | 120.61703 | 6417 ft | 138 kts | 317° |
| 2026-05-01 12:55 | 22.22888 | 120.60220 | 5982 ft | 171 kts | 320° |
| 2026-05-01 12:55 | 22.23840 | 120.59446 | 5783 ft | 177 kts | 320° |
| 2026-05-01 12:55 | 22.24834 | 120.58633 | 5632 ft | 179 kts | 317° |
| 2026-05-01 12:56 | 22.25711 | 120.57693 | 5460 ft | 178 kts | 315° |
| 2026-05-01 12:56 | 22.26656 | 120.56840 | 5281 ft | 177 kts | 320° |
| 2026-05-01 12:56 | 22.27624 | 120.56032 | 5119 ft | 175 kts | 321° |
| 2026-05-01 12:56 | 22.28597 | 120.55236 | 4951 ft | 176 kts | 321° |
| 2026-05-01 12:57 | 22.29575 | 120.54440 | 4781 ft | 176 kts | 322° |
| 2026-05-01 12:57 | 22.31532 | 120.52845 | 4439 ft | 176 kts | 323° |
| 2026-05-01 12:57 | 22.32498 | 120.52060 | 4260 ft | 171 kts | 324° |
| 2026-05-01 12:58 | 22.33438 | 120.51293 | 4093 ft | 168 kts | 325° |
| 2026-05-01 12:58 | 22.34352 | 120.50547 | 4014 ft | 160 kts | 325° |
| 2026-05-01 12:58 | 22.35243 | 120.49816 | 4016 ft | 165 kts | 325° |
| 2026-05-01 12:59 | 22.37137 | 120.48274 | 4011 ft | 176 kts | 326° |
| 2026-05-01 12:59 | 22.38119 | 120.47483 | 4010 ft | 175 kts | 326° |
| 2026-05-01 12:59 | 22.40052 | 120.45932 | 4007 ft | 172 kts | 326° |
| 2026-05-01 13:00 | 22.41975 | 120.44456 | 3997 ft | 166 kts | 339° |
| 2026-05-01 13:00 | 22.43078 | 120.44399 | 3990 ft | 158 kts | 21° |
| 2026-05-01 13:01 | 22.44645 | 120.45935 | 4001 ft | 155 kts | 48° |
| 2026-05-01 13:01 | 22.45474 | 120.46682 | 3999 ft | 155 kts | 42° |
| 2026-05-01 13:01 | 22.47169 | 120.48164 | 3691 ft | 157 kts | 39° |
| 2026-05-01 13:02 | 22.48076 | 120.48834 | 3484 ft | 158 kts | 36° |
| 2026-05-01 13:07 | 22.57578 | 120.39141 | 645 ft | 96 kts | 274° |
| 2026-05-01 13:07 | 22.57600 | 120.38421 | 569 ft | 96 kts | 273° |
| 2026-05-01 13:07 | 22.57624 | 120.37705 | 374 ft | 92 kts | 270° |
| 2026-05-01 13:08 | 22.57643 | 120.37015 | 251 ft | 93 kts | 273° |
| 2026-05-01 13:08 | 22.57667 | 120.36316 | 125 ft | 92 kts | 275° |
| 2026-05-01 13:08 | 22.57687 | 120.35665 | 35 ft | 73 kts | 268° |
| 2026-05-01 13:08 | 22.57699 | 120.35244 | 33 ft | 36 kts | 274° |
| 2026-05-01 13:09 | 22.57704 | 120.35076 | 32 ft | 17 kts | 269° |
| 2026-05-01 13:09 | 22.57705 | 120.34969 | 32 ft | 13 kts | 270° |
| 2026-05-01 13:09 | 22.57664 | 120.34914 | 33 ft | 9 kts | 187° |
| 2026-05-01 13:09 | 22.57600 | 120.34911 | 33 ft | 9 kts | 184° |
| 2026-05-01 13:10 | 22.57550 | 120.34881 | 33 ft | 8 kts | 248° |
| 2026-05-01 13:10 | 22.57546 | 120.34817 | 33 ft | 7 kts | 272° |
| 2026-05-01 13:10 | 22.57547 | 120.34771 | 33 ft | 6 kts | 272° |
| 2026-05-01 13:10 | 22.57549 | 120.34714 | 33 ft | 7 kts | 272° |
| 2026-05-01 13:11 | 22.57550 | 120.34671 | 33 ft | 5 kts | 268° |
| 2026-05-01 13:11 | 22.57526 | 120.34625 | 33 ft | 10 kts | 212° |
| 2026-05-01 13:11 | 22.57451 | 120.34614 | 33 ft | 11 kts | 181° |
| 2026-05-01 13:11 | 22.57378 | 120.34612 | 33 ft | 10 kts | 183° |
| 2026-05-01 13:12 | 22.57309 | 120.34612 | 33 ft | 10 kts | 182° |
| 2026-05-01 13:12 | 22.57245 | 120.34606 | 33 ft | 9 kts | 177° |
| 2026-05-01 13:12 | 22.57187 | 120.34590 | 33 ft | 8 kts | 182° |
| 2026-05-01 13:12 | 22.57143 | 120.34589 | 33 ft | 0 kts | 180° |